sensor_id;sensor_type;location;lat;lon;timestamp;P1;durP1;ratioP1;P2;durP2;ratioP2
8268;SDS011;4174;48.304;16.364;2023-08-06T00:01:58;3.20;;;0.50;;
8268;SDS011;4174;48.304;16.364;2023-08-06T00:08:03;2.23;;;0.40;;
8268;SDS011;4174;48.304;16.364;2023-08-06T00:14:07;2.10;;;0.40;;
8268;SDS011;4174;48.304;16.364;2023-08-06T00:20:12;2.07;;;0.47;;
8268;SDS011;4174;48.304;16.364;2023-08-06T00:26:16;2.25;;;0.45;;
8268;SDS011;4174;48.304;16.364;2023-08-06T00:32:19;2.43;;;0.50;;
8268;SDS011;4174;48.304;16.364;2023-08-06T00:38:22;3.37;;;0.50;;
8268;SDS011;4174;48.304;16.364;2023-08-06T00:44:27;2.93;;;0.43;;
8268;SDS011;4174;48.304;16.364;2023-08-06T00:50:31;2.65;;;0.40;;
8268;SDS011;4174;48.304;16.364;2023-08-06T00:56:35;2.25;;;0.40;;
8268;SDS011;4174;48.304;16.364;2023-08-06T01:02:37;2.93;;;0.50;;
8268;SDS011;4174;48.304;16.364;2023-08-06T01:08:45;2.25;;;0.40;;
8268;SDS011;4174;48.304;16.364;2023-08-06T01:14:50;2.00;;;0.40;;
8268;SDS011;4174;48.304;16.364;2023-08-06T01:21:09;1.83;;;0.40;;
8268;SDS011;4174;48.304;16.364;2023-08-06T01:27:22;2.67;;;0.40;;
8268;SDS011;4174;48.304;16.364;2023-08-06T01:33:26;1.97;;;0.40;;
8268;SDS011;4174;48.304;16.364;2023-08-06T01:39:29;2.03;;;0.35;;
8268;SDS011;4174;48.304;16.364;2023-08-06T01:45:31;2.23;;;0.40;;
8268;SDS011;4174;48.304;16.364;2023-08-06T01:51:35;1.83;;;0.30;;
8268;SDS011;4174;48.304;16.364;2023-08-06T01:57:39;1.63;;;0.30;;
8268;SDS011;4174;48.304;16.364;2023-08-06T02:03:42;1.95;;;0.40;;
8268;SDS011;4174;48.304;16.364;2023-08-06T02:09:47;2.60;;;0.50;;
8268;SDS011;4174;48.304;16.364;2023-08-06T02:15:51;2.58;;;0.50;;
8268;SDS011;4174;48.304;16.364;2023-08-06T02:21:54;2.90;;;0.50;;
8268;SDS011;4174;48.304;16.364;2023-08-06T02:27:57;3.03;;;0.65;;
8268;SDS011;4174;48.304;16.364;2023-08-06T02:34:01;3.03;;;0.60;;
8268;SDS011;4174;48.304;16.364;2023-08-06T02:40:04;3.20;;;0.70;;
8268;SDS011;4174;48.304;16.364;2023-08-06T02:46:08;3.30;;;0.80;;
8268;SDS011;4174;48.304;16.364;2023-08-06T02:52:12;3.53;;;1.00;;
8268;SDS011;4174;48.304;16.364;2023-08-06T02:58:17;3.73;;;0.97;;
8268;SDS011;4174;48.304;16.364;2023-08-06T03:04:20;3.40;;;0.90;;
8268;SDS011;4174;48.304;16.364;2023-08-06T03:10:24;3.50;;;0.97;;
8268;SDS011;4174;48.304;16.364;2023-08-06T03:16:27;3.80;;;1.10;;
8268;SDS011;4174;48.304;16.364;2023-08-06T03:22:31;4.20;;;1.10;;
8268;SDS011;4174;48.304;16.364;2023-08-06T03:28:34;4.20;;;1.33;;
8268;SDS011;4174;48.304;16.364;2023-08-06T03:34:38;4.22;;;1.30;;
8268;SDS011;4174;48.304;16.364;2023-08-06T03:40:42;4.10;;;1.37;;
8268;SDS011;4174;48.304;16.364;2023-08-06T03:46:46;5.17;;;1.40;;
8268;SDS011;4174;48.304;16.364;2023-08-06T03:52:49;4.12;;;1.30;;
8268;SDS011;4174;48.304;16.364;2023-08-06T03:58:53;3.97;;;1.20;;
8268;SDS011;4174;48.304;16.364;2023-08-06T04:04:57;4.57;;;1.20;;
8268;SDS011;4174;48.304;16.364;2023-08-06T04:11:00;4.10;;;1.30;;
8268;SDS011;4174;48.304;16.364;2023-08-06T04:17:04;5.17;;;1.40;;
8268;SDS011;4174;48.304;16.364;2023-08-06T04:23:07;4.90;;;1.40;;
8268;SDS011;4174;48.304;16.364;2023-08-06T04:29:11;4.57;;;1.40;;
8268;SDS011;4174;48.304;16.364;2023-08-06T04:35:14;4.73;;;1.40;;
8268;SDS011;4174;48.304;16.364;2023-08-06T04:41:18;4.40;;;1.40;;
8268;SDS011;4174;48.304;16.364;2023-08-06T04:47:21;4.72;;;1.20;;
8268;SDS011;4174;48.304;16.364;2023-08-06T04:53:25;3.97;;;1.30;;
8268;SDS011;4174;48.304;16.364;2023-08-06T04:59:28;4.70;;;1.27;;
8268;SDS011;4174;48.304;16.364;2023-08-06T05:05:32;5.60;;;1.40;;
8268;SDS011;4174;48.304;16.364;2023-08-06T05:11:36;4.00;;;1.23;;
8268;SDS011;4174;48.304;16.364;2023-08-06T05:17:40;4.20;;;1.30;;
8268;SDS011;4174;48.304;16.364;2023-08-06T05:23:44;4.37;;;1.20;;
8268;SDS011;4174;48.304;16.364;2023-08-06T05:29:48;4.20;;;1.10;;
8268;SDS011;4174;48.304;16.364;2023-08-06T05:35:51;4.30;;;1.10;;
8268;SDS011;4174;48.304;16.364;2023-08-06T05:41:55;4.90;;;1.20;;
8268;SDS011;4174;48.304;16.364;2023-08-06T05:47:59;4.60;;;1.23;;
8268;SDS011;4174;48.304;16.364;2023-08-06T05:54:02;5.17;;;1.27;;
8268;SDS011;4174;48.304;16.364;2023-08-06T06:00:06;3.80;;;1.05;;
8268;SDS011;4174;48.304;16.364;2023-08-06T06:06:10;4.50;;;1.42;;
8268;SDS011;4174;48.304;16.364;2023-08-06T06:12:13;4.17;;;1.20;;
8268;SDS011;4174;48.304;16.364;2023-08-06T06:18:17;3.90;;;1.20;;
8268;SDS011;4174;48.304;16.364;2023-08-06T06:24:21;4.07;;;1.23;;
8268;SDS011;4174;48.304;16.364;2023-08-06T06:30:24;3.70;;;1.10;;
8268;SDS011;4174;48.304;16.364;2023-08-06T06:36:28;4.60;;;1.30;;
8268;SDS011;4174;48.304;16.364;2023-08-06T06:42:32;5.80;;;1.17;;
8268;SDS011;4174;48.304;16.364;2023-08-06T06:48:35;4.37;;;1.10;;
8268;SDS011;4174;48.304;16.364;2023-08-06T06:54:39;4.30;;;1.10;;
8268;SDS011;4174;48.304;16.364;2023-08-06T07:00:42;4.00;;;1.10;;
8268;SDS011;4174;48.304;16.364;2023-08-06T07:06:46;4.47;;;1.10;;
8268;SDS011;4174;48.304;16.364;2023-08-06T07:12:48;4.60;;;1.17;;
8268;SDS011;4174;48.304;16.364;2023-08-06T07:18:53;4.70;;;1.20;;
8268;SDS011;4174;48.304;16.364;2023-08-06T07:24:55;4.10;;;1.20;;
8268;SDS011;4174;48.304;16.364;2023-08-06T07:30:58;3.90;;;1.10;;
8268;SDS011;4174;48.304;16.364;2023-08-06T07:37:02;5.35;;;1.55;;
8268;SDS011;4174;48.304;16.364;2023-08-06T07:43:07;4.50;;;1.50;;
8268;SDS011;4174;48.304;16.364;2023-08-06T07:49:11;5.50;;;1.50;;
8268;SDS011;4174;48.304;16.364;2023-08-06T07:55:14;5.00;;;1.57;;
8268;SDS011;4174;48.304;16.364;2023-08-06T08:01:18;4.90;;;1.30;;
8268;SDS011;4174;48.304;16.364;2023-08-06T08:07:22;4.80;;;1.60;;
8268;SDS011;4174;48.304;16.364;2023-08-06T08:13:26;5.20;;;1.70;;
8268;SDS011;4174;48.304;16.364;2023-08-06T08:19:31;4.80;;;1.80;;
8268;SDS011;4174;48.304;16.364;2023-08-06T08:25:34;5.77;;;2.30;;
8268;SDS011;4174;48.304;16.364;2023-08-06T08:31:37;4.73;;;1.83;;
8268;SDS011;4174;48.304;16.364;2023-08-06T08:37:41;5.25;;;2.20;;
8268;SDS011;4174;48.304;16.364;2023-08-06T08:43:44;5.47;;;2.20;;
8268;SDS011;4174;48.304;16.364;2023-08-06T08:49:47;5.55;;;2.10;;
8268;SDS011;4174;48.304;16.364;2023-08-06T08:55:50;4.87;;;1.77;;
8268;SDS011;4174;48.304;16.364;2023-08-06T09:01:53;4.50;;;1.60;;
8268;SDS011;4174;48.304;16.364;2023-08-06T09:07:57;4.05;;;1.33;;
8268;SDS011;4174;48.304;16.364;2023-08-06T09:13:59;4.20;;;1.40;;
8268;SDS011;4174;48.304;16.364;2023-08-06T09:20:09;5.03;;;2.00;;
8268;SDS011;4174;48.304;16.364;2023-08-06T09:26:16;5.03;;;1.90;;
8268;SDS011;4174;48.304;16.364;2023-08-06T09:32:19;5.80;;;2.00;;
8268;SDS011;4174;48.304;16.364;2023-08-06T09:38:24;5.40;;;1.98;;
8268;SDS011;4174;48.304;16.364;2023-08-06T09:44:26;5.00;;;1.90;;
8268;SDS011;4174;48.304;16.364;2023-08-06T09:50:29;4.75;;;1.90;;
8268;SDS011;4174;48.304;16.364;2023-08-06T09:56:30;5.12;;;1.87;;
8268;SDS011;4174;48.304;16.364;2023-08-06T10:02:33;5.07;;;1.70;;
8268;SDS011;4174;48.304;16.364;2023-08-06T10:08:36;4.55;;;1.50;;
8268;SDS011;4174;48.304;16.364;2023-08-06T10:14:39;4.50;;;1.53;;
8268;SDS011;4174;48.304;16.364;2023-08-06T10:20:42;4.12;;;1.40;;
8268;SDS011;4174;48.304;16.364;2023-08-06T10:26:46;3.87;;;1.20;;
8268;SDS011;4174;48.304;16.364;2023-08-06T10:32:50;3.65;;;1.00;;
8268;SDS011;4174;48.304;16.364;2023-08-06T10:38:56;3.80;;;1.10;;
8268;SDS011;4174;48.304;16.364;2023-08-06T10:51:14;3.80;;;1.10;;
8268;SDS011;4174;48.304;16.364;2023-08-06T10:57:17;3.90;;;1.10;;
8268;SDS011;4174;48.304;16.364;2023-08-06T11:03:21;3.80;;;1.20;;
8268;SDS011;4174;48.304;16.364;2023-08-06T11:09:24;3.83;;;1.07;;
8268;SDS011;4174;48.304;16.364;2023-08-06T11:15:28;4.40;;;1.10;;
8268;SDS011;4174;48.304;16.364;2023-08-06T11:21:31;3.75;;;1.10;;
8268;SDS011;4174;48.304;16.364;2023-08-06T11:27:34;3.87;;;1.20;;
8268;SDS011;4174;48.304;16.364;2023-08-06T11:33:37;5.50;;;1.47;;
8268;SDS011;4174;48.304;16.364;2023-08-06T11:39:44;4.85;;;1.90;;
8268;SDS011;4174;48.304;16.364;2023-08-06T11:45:47;6.45;;;3.00;;
8268;SDS011;4174;48.304;16.364;2023-08-06T11:51:50;7.18;;;2.90;;
8268;SDS011;4174;48.304;16.364;2023-08-06T11:57:54;6.13;;;2.67;;
8268;SDS011;4174;48.304;16.364;2023-08-06T12:03:58;5.33;;;2.10;;
8268;SDS011;4174;48.304;16.364;2023-08-06T12:10:01;5.60;;;2.17;;
8268;SDS011;4174;48.304;16.364;2023-08-06T12:16:04;5.50;;;2.30;;
8268;SDS011;4174;48.304;16.364;2023-08-06T12:22:08;6.13;;;2.33;;
8268;SDS011;4174;48.304;16.364;2023-08-06T12:28:11;5.67;;;2.20;;
8268;SDS011;4174;48.304;16.364;2023-08-06T12:34:15;5.20;;;2.10;;
8268;SDS011;4174;48.304;16.364;2023-08-06T12:40:19;5.10;;;2.17;;
8268;SDS011;4174;48.304;16.364;2023-08-06T12:46:22;6.03;;;2.30;;
8268;SDS011;4174;48.304;16.364;2023-08-06T12:52:25;6.10;;;2.27;;
8268;SDS011;4174;48.304;16.364;2023-08-06T12:58:29;6.00;;;2.35;;
8268;SDS011;4174;48.304;16.364;2023-08-06T13:04:32;7.63;;;2.33;;
8268;SDS011;4174;48.304;16.364;2023-08-06T13:10:36;5.82;;;2.30;;
8268;SDS011;4174;48.304;16.364;2023-08-06T13:16:40;5.90;;;2.40;;
8268;SDS011;4174;48.304;16.364;2023-08-06T13:22:42;6.12;;;2.35;;
8268;SDS011;4174;48.304;16.364;2023-08-06T13:28:46;6.43;;;2.60;;
8268;SDS011;4174;48.304;16.364;2023-08-06T13:34:50;6.20;;;2.50;;
8268;SDS011;4174;48.304;16.364;2023-08-06T13:40:54;5.97;;;2.50;;
8268;SDS011;4174;48.304;16.364;2023-08-06T13:46:57;5.80;;;2.40;;
8268;SDS011;4174;48.304;16.364;2023-08-06T13:53:01;6.03;;;2.42;;
8268;SDS011;4174;48.304;16.364;2023-08-06T13:59:06;5.97;;;2.30;;
8268;SDS011;4174;48.304;16.364;2023-08-06T14:05:09;5.85;;;2.12;;
8268;SDS011;4174;48.304;16.364;2023-08-06T14:11:13;5.30;;;2.20;;
8268;SDS011;4174;48.304;16.364;2023-08-06T14:17:17;5.80;;;2.10;;
8268;SDS011;4174;48.304;16.364;2023-08-06T14:23:20;5.87;;;2.33;;
8268;SDS011;4174;48.304;16.364;2023-08-06T14:29:25;5.20;;;2.10;;
8268;SDS011;4174;48.304;16.364;2023-08-06T14:35:29;5.82;;;2.12;;
8268;SDS011;4174;48.304;16.364;2023-08-06T14:41:32;4.00;;;1.20;;
8268;SDS011;4174;48.304;16.364;2023-08-06T14:47:36;3.60;;;0.90;;
8268;SDS011;4174;48.304;16.364;2023-08-06T14:53:40;3.55;;;0.80;;
8268;SDS011;4174;48.304;16.364;2023-08-06T14:59:43;3.27;;;0.70;;
8268;SDS011;4174;48.304;16.364;2023-08-06T15:05:48;4.10;;;0.70;;
8268;SDS011;4174;48.304;16.364;2023-08-06T15:11:50;3.50;;;0.80;;
8268;SDS011;4174;48.304;16.364;2023-08-06T15:17:53;3.70;;;0.77;;
8268;SDS011;4174;48.304;16.364;2023-08-06T15:23:57;5.20;;;0.80;;
8268;SDS011;4174;48.304;16.364;2023-08-06T15:30:01;3.37;;;0.80;;
8268;SDS011;4174;48.304;16.364;2023-08-06T15:36:04;3.60;;;0.90;;
8268;SDS011;4174;48.304;16.364;2023-08-06T15:42:08;3.50;;;0.77;;
8268;SDS011;4174;48.304;16.364;2023-08-06T15:48:12;2.83;;;0.60;;
8268;SDS011;4174;48.304;16.364;2023-08-06T15:54:15;3.57;;;0.70;;
8268;SDS011;4174;48.304;16.364;2023-08-06T16:00:19;2.70;;;0.60;;
8268;SDS011;4174;48.304;16.364;2023-08-06T16:06:23;2.47;;;0.50;;
8268;SDS011;4174;48.304;16.364;2023-08-06T16:12:26;2.80;;;0.60;;
8268;SDS011;4174;48.304;16.364;2023-08-06T16:18:30;3.10;;;0.50;;
8268;SDS011;4174;48.304;16.364;2023-08-06T16:24:35;2.00;;;0.30;;
8268;SDS011;4174;48.304;16.364;2023-08-06T16:30:44;2.03;;;0.40;;
8268;SDS011;4174;48.304;16.364;2023-08-06T16:36:46;2.80;;;0.40;;
8268;SDS011;4174;48.304;16.364;2023-08-06T16:42:50;3.45;;;0.55;;
8268;SDS011;4174;48.304;16.364;2023-08-06T16:48:54;2.30;;;0.40;;
8268;SDS011;4174;48.304;16.364;2023-08-06T16:54:58;2.77;;;0.40;;
8268;SDS011;4174;48.304;16.364;2023-08-06T17:01:02;2.37;;;0.40;;
8268;SDS011;4174;48.304;16.364;2023-08-06T17:07:06;3.50;;;0.40;;
8268;SDS011;4174;48.304;16.364;2023-08-06T17:13:09;2.50;;;0.50;;
8268;SDS011;4174;48.304;16.364;2023-08-06T17:19:13;2.27;;;0.40;;
8268;SDS011;4174;48.304;16.364;2023-08-06T17:25:17;2.00;;;0.40;;
8268;SDS011;4174;48.304;16.364;2023-08-06T17:31:22;2.43;;;0.40;;
8268;SDS011;4174;48.304;16.364;2023-08-06T17:37:26;2.28;;;0.40;;
8268;SDS011;4174;48.304;16.364;2023-08-06T17:43:30;2.10;;;0.40;;
8268;SDS011;4174;48.304;16.364;2023-08-06T17:49:33;3.37;;;0.70;;
8268;SDS011;4174;48.304;16.364;2023-08-06T17:55:37;2.70;;;0.40;;
8268;SDS011;4174;48.304;16.364;2023-08-06T18:01:46;2.03;;;0.40;;
8268;SDS011;4174;48.304;16.364;2023-08-06T18:07:49;2.00;;;0.40;;
8268;SDS011;4174;48.304;16.364;2023-08-06T18:13:53;5.53;;;0.50;;
8268;SDS011;4174;48.304;16.364;2023-08-06T18:19:56;2.00;;;0.40;;
8268;SDS011;4174;48.304;16.364;2023-08-06T18:26:00;4.03;;;0.70;;
8268;SDS011;4174;48.304;16.364;2023-08-06T18:32:04;2.37;;;0.40;;
8268;SDS011;4174;48.304;16.364;2023-08-06T18:38:08;1.75;;;0.30;;
8268;SDS011;4174;48.304;16.364;2023-08-06T18:44:12;1.90;;;0.30;;
8268;SDS011;4174;48.304;16.364;2023-08-06T18:50:15;2.00;;;0.40;;
8268;SDS011;4174;48.304;16.364;2023-08-06T18:56:19;1.80;;;0.30;;
8268;SDS011;4174;48.304;16.364;2023-08-06T19:02:23;1.70;;;0.30;;
8268;SDS011;4174;48.304;16.364;2023-08-06T19:08:27;2.10;;;0.30;;
8268;SDS011;4174;48.304;16.364;2023-08-06T19:14:30;1.40;;;0.20;;
8268;SDS011;4174;48.304;16.364;2023-08-06T19:20:34;3.13;;;0.50;;
8268;SDS011;4174;48.304;16.364;2023-08-06T19:26:40;1.30;;;0.20;;
8268;SDS011;4174;48.304;16.364;2023-08-06T19:32:43;1.35;;;0.30;;
8268;SDS011;4174;48.304;16.364;2023-08-06T19:38:47;1.33;;;0.28;;
8268;SDS011;4174;48.304;16.364;2023-08-06T19:44:51;1.10;;;0.20;;
8268;SDS011;4174;48.304;16.364;2023-08-06T19:50:56;2.80;;;0.40;;
8268;SDS011;4174;48.304;16.364;2023-08-06T19:57:01;1.87;;;0.30;;
8268;SDS011;4174;48.304;16.364;2023-08-06T20:03:06;1.27;;;0.30;;
8268;SDS011;4174;48.304;16.364;2023-08-06T20:09:10;3.27;;;0.30;;
8268;SDS011;4174;48.304;16.364;2023-08-06T20:15:15;2.17;;;0.30;;
8268;SDS011;4174;48.304;16.364;2023-08-06T20:21:19;1.90;;;0.40;;
8268;SDS011;4174;48.304;16.364;2023-08-06T20:27:22;1.60;;;0.30;;
8268;SDS011;4174;48.304;16.364;2023-08-06T20:33:27;1.80;;;0.40;;
8268;SDS011;4174;48.304;16.364;2023-08-06T20:39:30;2.50;;;0.40;;
8268;SDS011;4174;48.304;16.364;2023-08-06T20:45:34;2.25;;;0.43;;
8268;SDS011;4174;48.304;16.364;2023-08-06T20:51:39;2.33;;;0.40;;
8268;SDS011;4174;48.304;16.364;2023-08-06T20:57:42;4.00;;;0.50;;
8268;SDS011;4174;48.304;16.364;2023-08-06T21:03:47;2.50;;;0.43;;
8268;SDS011;4174;48.304;16.364;2023-08-06T21:09:51;1.70;;;0.30;;
8268;SDS011;4174;48.304;16.364;2023-08-06T21:15:55;2.07;;;0.50;;
8268;SDS011;4174;48.304;16.364;2023-08-06T21:21:59;1.70;;;0.40;;
8268;SDS011;4174;48.304;16.364;2023-08-06T21:28:02;3.73;;;0.50;;
8268;SDS011;4174;48.304;16.364;2023-08-06T21:34:06;2.17;;;0.40;;
8268;SDS011;4174;48.304;16.364;2023-08-06T21:40:10;2.40;;;0.40;;
8268;SDS011;4174;48.304;16.364;2023-08-06T21:46:15;2.05;;;0.40;;
8268;SDS011;4174;48.304;16.364;2023-08-06T21:52:20;2.30;;;0.40;;
8268;SDS011;4174;48.304;16.364;2023-08-06T21:58:24;2.65;;;0.40;;
8268;SDS011;4174;48.304;16.364;2023-08-06T22:04:27;3.37;;;0.43;;
8268;SDS011;4174;48.304;16.364;2023-08-06T22:10:31;1.90;;;0.40;;
8268;SDS011;4174;48.304;16.364;2023-08-06T22:16:35;1.87;;;0.40;;
8268;SDS011;4174;48.304;16.364;2023-08-06T22:22:39;1.63;;;0.30;;
8268;SDS011;4174;48.304;16.364;2023-08-06T22:28:42;2.07;;;0.40;;
8268;SDS011;4174;48.304;16.364;2023-08-06T22:34:46;2.60;;;0.40;;
8268;SDS011;4174;48.304;16.364;2023-08-06T22:40:49;1.80;;;0.33;;
8268;SDS011;4174;48.304;16.364;2023-08-06T22:46:53;2.58;;;0.40;;
8268;SDS011;4174;48.304;16.364;2023-08-06T22:52:57;3.03;;;0.50;;
8268;SDS011;4174;48.304;16.364;2023-08-06T22:59:01;2.43;;;0.50;;
8268;SDS011;4174;48.304;16.364;2023-08-06T23:05:05;1.80;;;0.40;;
8268;SDS011;4174;48.304;16.364;2023-08-06T23:11:09;3.05;;;0.70;;
8268;SDS011;4174;48.304;16.364;2023-08-06T23:17:13;2.30;;;0.50;;
8268;SDS011;4174;48.304;16.364;2023-08-06T23:23:16;2.00;;;0.40;;
8268;SDS011;4174;48.304;16.364;2023-08-06T23:29:21;3.40;;;0.50;;
8268;SDS011;4174;48.304;16.364;2023-08-06T23:35:24;2.80;;;0.50;;
8268;SDS011;4174;48.304;16.364;2023-08-06T23:41:28;3.07;;;0.50;;
8268;SDS011;4174;48.304;16.364;2023-08-06T23:47:31;2.40;;;0.40;;
8268;SDS011;4174;48.304;16.364;2023-08-06T23:53:35;2.20;;;0.40;;
8268;SDS011;4174;48.304;16.364;2023-08-06T23:59:40;2.73;;;0.53;;
